sensor_id;sensor_type;location;lat;lon;timestamp;P1;durP1;ratioP1;P2;durP2;ratioP2
41261;SDS011;29629;52.532;13.352;2022-08-05T00:01:21;22.08;;;7.00;;
41261;SDS011;29629;52.532;13.352;2022-08-05T00:03:48;17.02;;;6.68;;
41261;SDS011;29629;52.532;13.352;2022-08-05T00:06:15;17.73;;;7.47;;
41261;SDS011;29629;52.532;13.352;2022-08-05T00:08:43;23.30;;;7.63;;
41261;SDS011;29629;52.532;13.352;2022-08-05T00:11:10;19.58;;;7.60;;
41261;SDS011;29629;52.532;13.352;2022-08-05T00:13:39;17.10;;;7.03;;
41261;SDS011;29629;52.532;13.352;2022-08-05T00:16:07;23.30;;;7.90;;
41261;SDS011;29629;52.532;13.352;2022-08-05T00:18:37;20.15;;;7.05;;
41261;SDS011;29629;52.532;13.352;2022-08-05T00:21:04;18.75;;;6.40;;
41261;SDS011;29629;52.532;13.352;2022-08-05T00:23:31;18.75;;;9.23;;
41261;SDS011;29629;52.532;13.352;2022-08-05T00:25:58;14.65;;;5.93;;
41261;SDS011;29629;52.532;13.352;2022-08-05T00:28:25;18.25;;;6.85;;
41261;SDS011;29629;52.532;13.352;2022-08-05T00:30:52;17.70;;;6.20;;
41261;SDS011;29629;52.532;13.352;2022-08-05T00:33:18;16.88;;;6.45;;
41261;SDS011;29629;52.532;13.352;2022-08-05T00:35:47;14.88;;;6.28;;
41261;SDS011;29629;52.532;13.352;2022-08-05T00:38:14;15.52;;;5.97;;
41261;SDS011;29629;52.532;13.352;2022-08-05T00:40:44;16.92;;;6.53;;
41261;SDS011;29629;52.532;13.352;2022-08-05T00:43:13;18.42;;;7.05;;
41261;SDS011;29629;52.532;13.352;2022-08-05T00:45:40;16.25;;;6.80;;
41261;SDS011;29629;52.532;13.352;2022-08-05T00:48:08;20.30;;;6.35;;
41261;SDS011;29629;52.532;13.352;2022-08-05T00:50:36;20.60;;;6.40;;
41261;SDS011;29629;52.532;13.352;2022-08-05T00:53:06;21.27;;;7.43;;
41261;SDS011;29629;52.532;13.352;2022-08-05T00:55:33;15.38;;;6.40;;
41261;SDS011;29629;52.532;13.352;2022-08-05T00:57:59;17.00;;;7.05;;
41261;SDS011;29629;52.532;13.352;2022-08-05T01:00:27;27.98;;;10.35;;
41261;SDS011;29629;52.532;13.352;2022-08-05T01:02:55;22.17;;;9.18;;
41261;SDS011;29629;52.532;13.352;2022-08-05T01:05:22;21.55;;;8.85;;
41261;SDS011;29629;52.532;13.352;2022-08-05T01:07:49;21.63;;;9.32;;
41261;SDS011;29629;52.532;13.352;2022-08-05T01:10:19;23.75;;;9.35;;
41261;SDS011;29629;52.532;13.352;2022-08-05T01:12:51;22.60;;;10.13;;
41261;SDS011;29629;52.532;13.352;2022-08-05T01:15:21;22.55;;;10.85;;
41261;SDS011;29629;52.532;13.352;2022-08-05T01:17:55;15.10;;;9.75;;
41261;SDS011;29629;52.532;13.352;2022-08-05T01:20:29;27.75;;;10.98;;
41261;SDS011;29629;52.532;13.352;2022-08-05T01:23:05;22.27;;;11.13;;
41261;SDS011;29629;52.532;13.352;2022-08-05T01:25:45;23.83;;;11.32;;
41261;SDS011;29629;52.532;13.352;2022-08-05T01:28:24;24.17;;;11.93;;
41261;SDS011;29629;52.532;13.352;2022-08-05T01:30:59;21.60;;;11.18;;
41261;SDS011;29629;52.532;13.352;2022-08-05T01:33:31;21.60;;;11.65;;
41261;SDS011;29629;52.532;13.352;2022-08-05T01:36:01;27.50;;;13.77;;
41261;SDS011;29629;52.532;13.352;2022-08-05T01:38:32;22.27;;;12.40;;
41261;SDS011;29629;52.532;13.352;2022-08-05T01:41:01;22.35;;;13.10;;
41261;SDS011;29629;52.532;13.352;2022-08-05T01:43:30;18.73;;;12.50;;
41261;SDS011;29629;52.532;13.352;2022-08-05T01:45:58;32.92;;;14.35;;
41261;SDS011;29629;52.532;13.352;2022-08-05T01:48:26;30.83;;;15.25;;
41261;SDS011;29629;52.532;13.352;2022-08-05T01:50:56;33.85;;;15.30;;
41261;SDS011;29629;52.532;13.352;2022-08-05T01:53:24;24.65;;;14.23;;
41261;SDS011;29629;52.532;13.352;2022-08-05T01:55:52;20.10;;;12.38;;
41261;SDS011;29629;52.532;13.352;2022-08-05T01:58:23;29.50;;;12.68;;
41261;SDS011;29629;52.532;13.352;2022-08-05T02:00:54;24.50;;;13.68;;
41261;SDS011;29629;52.532;13.352;2022-08-05T02:03:24;22.42;;;12.93;;
41261;SDS011;29629;52.532;13.352;2022-08-05T02:05:54;20.42;;;14.95;;
41261;SDS011;29629;52.532;13.352;2022-08-05T02:08:21;15.30;;;13.50;;
41261;SDS011;29629;52.532;13.352;2022-08-05T02:10:49;20.63;;;15.65;;
41261;SDS011;29629;52.532;13.352;2022-08-05T02:13:20;24.55;;;14.43;;
41261;SDS011;29629;52.532;13.352;2022-08-05T02:15:54;23.02;;;16.98;;
41261;SDS011;29629;52.532;13.352;2022-08-05T02:18:29;23.60;;;16.10;;
41261;SDS011;29629;52.532;13.352;2022-08-05T02:21:00;28.55;;;24.77;;
41261;SDS011;29629;52.532;13.352;2022-08-05T02:23:32;24.35;;;15.55;;
41261;SDS011;29629;52.532;13.352;2022-08-05T02:26:03;36.38;;;17.52;;
41261;SDS011;29629;52.532;13.352;2022-08-05T02:28:33;19.40;;;15.52;;
41261;SDS011;29629;52.532;13.352;2022-08-05T02:31:06;26.50;;;16.23;;
41261;SDS011;29629;52.532;13.352;2022-08-05T02:33:36;25.13;;;15.45;;
41261;SDS011;29629;52.532;13.352;2022-08-05T02:36:08;31.80;;;16.20;;
41261;SDS011;29629;52.532;13.352;2022-08-05T02:38:37;31.80;;;17.17;;
41261;SDS011;29629;52.532;13.352;2022-08-05T02:41:07;26.38;;;16.95;;
41261;SDS011;29629;52.532;13.352;2022-08-05T02:43:35;29.60;;;18.73;;
41261;SDS011;29629;52.532;13.352;2022-08-05T02:46:05;37.85;;;21.02;;
41261;SDS011;29629;52.532;13.352;2022-08-05T02:48:32;29.00;;;19.42;;
41261;SDS011;29629;52.532;13.352;2022-08-05T02:51:00;18.55;;;16.58;;
41261;SDS011;29629;52.532;13.352;2022-08-05T02:53:28;26.13;;;18.55;;
41261;SDS011;29629;52.532;13.352;2022-08-05T02:55:56;28.42;;;21.00;;
41261;SDS011;29629;52.532;13.352;2022-08-05T02:58:25;25.30;;;18.08;;
41261;SDS011;29629;52.532;13.352;2022-08-05T03:00:53;27.73;;;19.75;;
41261;SDS011;29629;52.532;13.352;2022-08-05T03:03:22;21.73;;;18.20;;
41261;SDS011;29629;52.532;13.352;2022-08-05T03:05:50;21.63;;;18.33;;
41261;SDS011;29629;52.532;13.352;2022-08-05T03:08:17;31.67;;;20.35;;
41261;SDS011;29629;52.532;13.352;2022-08-05T03:10:45;24.10;;;19.88;;
41261;SDS011;29629;52.532;13.352;2022-08-05T03:13:12;23.85;;;19.73;;
41261;SDS011;29629;52.532;13.352;2022-08-05T03:15:43;21.27;;;19.23;;
41261;SDS011;29629;52.532;13.352;2022-08-05T03:18:10;29.27;;;22.08;;
41261;SDS011;29629;52.532;13.352;2022-08-05T03:20:39;23.17;;;20.40;;
41261;SDS011;29629;52.532;13.352;2022-08-05T03:23:07;24.48;;;19.90;;
41261;SDS011;29629;52.532;13.352;2022-08-05T03:25:35;33.25;;;23.08;;
41261;SDS011;29629;52.532;13.352;2022-08-05T03:28:04;28.73;;;21.65;;
41261;SDS011;29629;52.532;13.352;2022-08-05T03:30:32;32.22;;;23.15;;
41261;SDS011;29629;52.532;13.352;2022-08-05T03:32:59;31.23;;;22.85;;
41261;SDS011;29629;52.532;13.352;2022-08-05T03:35:27;30.33;;;23.80;;
41261;SDS011;29629;52.532;13.352;2022-08-05T03:37:56;38.75;;;25.88;;
41261;SDS011;29629;52.532;13.352;2022-08-05T03:40:24;32.30;;;25.30;;
41261;SDS011;29629;52.532;13.352;2022-08-05T03:42:51;34.63;;;26.23;;
41261;SDS011;29629;52.532;13.352;2022-08-05T03:45:18;24.27;;;22.13;;
41261;SDS011;29629;52.532;13.352;2022-08-05T03:47:45;37.33;;;26.73;;
41261;SDS011;29629;52.532;13.352;2022-08-05T03:50:12;30.38;;;27.73;;
41261;SDS011;29629;52.532;13.352;2022-08-05T03:52:41;49.75;;;28.77;;
41261;SDS011;29629;52.532;13.352;2022-08-05T03:55:17;31.02;;;28.23;;
41261;SDS011;29629;52.532;13.352;2022-08-05T03:57:50;29.85;;;27.02;;
41261;SDS011;29629;52.532;13.352;2022-08-05T04:00:18;30.02;;;27.33;;
41261;SDS011;29629;52.532;13.352;2022-08-05T04:02:50;31.25;;;27.83;;
41261;SDS011;29629;52.532;13.352;2022-08-05T04:05:20;29.33;;;26.08;;
41261;SDS011;29629;52.532;13.352;2022-08-05T04:07:48;31.67;;;28.65;;
41261;SDS011;29629;52.532;13.352;2022-08-05T04:10:17;31.40;;;28.50;;
41261;SDS011;29629;52.532;13.352;2022-08-05T04:12:44;29.67;;;26.80;;
41261;SDS011;29629;52.532;13.352;2022-08-05T04:15:11;29.98;;;27.10;;
41261;SDS011;29629;52.532;13.352;2022-08-05T04:17:38;33.17;;;29.50;;
41261;SDS011;29629;52.532;13.352;2022-08-05T04:20:05;37.00;;;27.60;;
41261;SDS011;29629;52.532;13.352;2022-08-05T04:22:33;28.55;;;25.30;;
41261;SDS011;29629;52.532;13.352;2022-08-05T04:25:00;28.40;;;24.13;;
41261;SDS011;29629;52.532;13.352;2022-08-05T04:27:28;28.77;;;26.40;;
41261;SDS011;29629;52.532;13.352;2022-08-05T04:29:55;26.30;;;22.27;;
41261;SDS011;29629;52.532;13.352;2022-08-05T04:32:22;29.75;;;25.55;;
41261;SDS011;29629;52.532;13.352;2022-08-05T04:34:49;32.28;;;28.88;;
41261;SDS011;29629;52.532;13.352;2022-08-05T04:37:16;27.63;;;20.88;;
41261;SDS011;29629;52.532;13.352;2022-08-05T04:39:42;22.52;;;20.23;;
41261;SDS011;29629;52.532;13.352;2022-08-05T04:42:09;26.30;;;20.35;;
41261;SDS011;29629;52.532;13.352;2022-08-05T04:44:37;38.10;;;21.33;;
41261;SDS011;29629;52.532;13.352;2022-08-05T04:47:04;28.42;;;18.88;;
41261;SDS011;29629;52.532;13.352;2022-08-05T04:49:31;29.50;;;18.98;;
41261;SDS011;29629;52.532;13.352;2022-08-05T04:51:58;24.70;;;16.30;;
41261;SDS011;29629;52.532;13.352;2022-08-05T04:54:24;29.55;;;16.38;;
41261;SDS011;29629;52.532;13.352;2022-08-05T04:56:52;14.48;;;13.23;;
41261;SDS011;29629;52.532;13.352;2022-08-05T04:59:18;22.13;;;14.10;;
41261;SDS011;29629;52.532;13.352;2022-08-05T05:01:47;19.08;;;13.07;;
41261;SDS011;29629;52.532;13.352;2022-08-05T05:04:14;33.97;;;16.67;;
41261;SDS011;29629;52.532;13.352;2022-08-05T05:06:41;18.02;;;13.45;;
41261;SDS011;29629;52.532;13.352;2022-08-05T05:09:09;21.85;;;14.73;;
41261;SDS011;29629;52.532;13.352;2022-08-05T05:11:35;29.35;;;16.40;;
41261;SDS011;29629;52.532;13.352;2022-08-05T05:14:02;23.35;;;16.40;;
41261;SDS011;29629;52.532;13.352;2022-08-05T05:16:30;20.27;;;15.43;;
41261;SDS011;29629;52.532;13.352;2022-08-05T05:18:58;26.58;;;15.48;;
41261;SDS011;29629;52.532;13.352;2022-08-05T05:21:25;19.58;;;15.52;;
41261;SDS011;29629;52.532;13.352;2022-08-05T05:23:52;21.13;;;16.38;;
41261;SDS011;29629;52.532;13.352;2022-08-05T05:26:19;19.60;;;15.80;;
41261;SDS011;29629;52.532;13.352;2022-08-05T05:28:46;20.30;;;13.93;;
41261;SDS011;29629;52.532;13.352;2022-08-05T05:31:13;25.23;;;14.88;;
41261;SDS011;29629;52.532;13.352;2022-08-05T05:33:39;24.95;;;13.32;;
41261;SDS011;29629;52.532;13.352;2022-08-05T05:36:08;25.33;;;13.77;;
41261;SDS011;29629;52.532;13.352;2022-08-05T05:38:35;23.02;;;13.23;;
41261;SDS011;29629;52.532;13.352;2022-08-05T05:41:02;13.40;;;12.00;;
41261;SDS011;29629;52.532;13.352;2022-08-05T05:43:28;25.15;;;14.07;;
41261;SDS011;29629;52.532;13.352;2022-08-05T05:45:55;25.60;;;14.75;;
41261;SDS011;29629;52.532;13.352;2022-08-05T05:48:22;17.42;;;10.40;;
41261;SDS011;29629;52.532;13.352;2022-08-05T05:50:49;23.40;;;11.88;;
41261;SDS011;29629;52.532;13.352;2022-08-05T05:53:18;41.95;;;13.32;;
41261;SDS011;29629;52.532;13.352;2022-08-05T05:55:44;28.30;;;12.20;;
41261;SDS011;29629;52.532;13.352;2022-08-05T05:58:11;28.08;;;24.98;;
41261;SDS011;29629;52.532;13.352;2022-08-05T06:00:38;24.38;;;13.60;;
41261;SDS011;29629;52.532;13.352;2022-08-05T06:03:05;34.35;;;16.23;;
41261;SDS011;29629;52.532;13.352;2022-08-05T06:05:33;29.67;;;16.25;;
41261;SDS011;29629;52.532;13.352;2022-08-05T06:08:00;25.30;;;16.27;;
41261;SDS011;29629;52.532;13.352;2022-08-05T06:10:28;22.10;;;15.82;;
41261;SDS011;29629;52.532;13.352;2022-08-05T06:12:55;30.63;;;16.60;;
41261;SDS011;29629;52.532;13.352;2022-08-05T06:15:22;20.75;;;17.13;;
41261;SDS011;29629;52.532;13.352;2022-08-05T06:17:49;24.85;;;18.17;;
41261;SDS011;29629;52.532;13.352;2022-08-05T06:20:16;20.40;;;14.85;;
41261;SDS011;29629;52.532;13.352;2022-08-05T06:22:43;28.80;;;20.60;;
41261;SDS011;29629;52.532;13.352;2022-08-05T06:25:10;23.58;;;21.30;;
41261;SDS011;29629;52.532;13.352;2022-08-05T06:27:38;22.73;;;20.98;;
41261;SDS011;29629;52.532;13.352;2022-08-05T06:30:06;30.05;;;21.77;;
41261;SDS011;29629;52.532;13.352;2022-08-05T06:32:34;23.27;;;20.92;;
41261;SDS011;29629;52.532;13.352;2022-08-05T06:35:01;28.08;;;18.10;;
41261;SDS011;29629;52.532;13.352;2022-08-05T06:37:28;25.63;;;18.75;;
41261;SDS011;29629;52.532;13.352;2022-08-05T06:39:55;33.28;;;15.00;;
41261;SDS011;29629;52.532;13.352;2022-08-05T06:42:22;18.65;;;10.20;;
41261;SDS011;29629;52.532;13.352;2022-08-05T06:44:50;21.92;;;9.60;;
41261;SDS011;29629;52.532;13.352;2022-08-05T06:47:17;22.98;;;8.57;;
41261;SDS011;29629;52.532;13.352;2022-08-05T06:49:43;21.83;;;8.68;;
41261;SDS011;29629;52.532;13.352;2022-08-05T06:52:10;26.42;;;12.85;;
41261;SDS011;29629;52.532;13.352;2022-08-05T06:54:37;34.28;;;11.38;;
41261;SDS011;29629;52.532;13.352;2022-08-05T06:57:04;12.40;;;7.00;;
41261;SDS011;29629;52.532;13.352;2022-08-05T06:59:31;21.08;;;7.65;;
41261;SDS011;29629;52.532;13.352;2022-08-05T07:01:59;24.23;;;8.63;;
41261;SDS011;29629;52.532;13.352;2022-08-05T07:04:26;30.70;;;10.57;;
41261;SDS011;29629;52.532;13.352;2022-08-05T07:06:52;19.38;;;6.57;;
41261;SDS011;29629;52.532;13.352;2022-08-05T07:09:19;21.63;;;6.65;;
41261;SDS011;29629;52.532;13.352;2022-08-05T07:11:46;9.70;;;5.18;;
41261;SDS011;29629;52.532;13.352;2022-08-05T07:14:13;22.83;;;7.38;;
41261;SDS011;29629;52.532;13.352;2022-08-05T07:16:59;14.35;;;4.95;;
41261;SDS011;29629;52.532;13.352;2022-08-05T07:19:26;13.82;;;4.53;;
41261;SDS011;29629;52.532;13.352;2022-08-05T07:21:56;20.05;;;6.10;;
41261;SDS011;29629;52.532;13.352;2022-08-05T07:24:23;17.70;;;6.15;;
41261;SDS011;29629;52.532;13.352;2022-08-05T07:26:50;9.93;;;4.78;;
41261;SDS011;29629;52.532;13.352;2022-08-05T07:29:17;18.88;;;5.90;;
41261;SDS011;29629;52.532;13.352;2022-08-05T07:31:44;19.83;;;6.15;;
41261;SDS011;29629;52.532;13.352;2022-08-05T07:34:12;25.48;;;7.25;;
41261;SDS011;29629;52.532;13.352;2022-08-05T07:36:39;19.52;;;6.05;;
41261;SDS011;29629;52.532;13.352;2022-08-05T07:39:07;21.90;;;6.07;;
41261;SDS011;29629;52.532;13.352;2022-08-05T07:41:35;16.77;;;6.28;;
41261;SDS011;29629;52.532;13.352;2022-08-05T07:44:02;21.05;;;6.85;;
41261;SDS011;29629;52.532;13.352;2022-08-05T07:46:30;16.08;;;6.55;;
41261;SDS011;29629;52.532;13.352;2022-08-05T07:48:58;17.45;;;6.07;;
41261;SDS011;29629;52.532;13.352;2022-08-05T07:51:28;15.75;;;5.97;;
41261;SDS011;29629;52.532;13.352;2022-08-05T07:53:56;29.42;;;8.45;;
41261;SDS011;29629;52.532;13.352;2022-08-05T07:56:23;16.25;;;6.72;;
41261;SDS011;29629;52.532;13.352;2022-08-05T07:58:50;17.77;;;6.95;;
41261;SDS011;29629;52.532;13.352;2022-08-05T08:01:17;21.23;;;6.75;;
41261;SDS011;29629;52.532;13.352;2022-08-05T08:03:44;19.00;;;6.85;;
41261;SDS011;29629;52.532;13.352;2022-08-05T08:06:11;25.60;;;8.93;;
41261;SDS011;29629;52.532;13.352;2022-08-05T08:08:39;21.10;;;8.65;;
41261;SDS011;29629;52.532;13.352;2022-08-05T08:11:06;23.33;;;8.18;;
41261;SDS011;29629;52.532;13.352;2022-08-05T08:13:33;19.80;;;6.90;;
41261;SDS011;29629;52.532;13.352;2022-08-05T08:16:00;21.20;;;7.13;;
41261;SDS011;29629;52.532;13.352;2022-08-05T08:18:27;16.58;;;6.57;;
41261;SDS011;29629;52.532;13.352;2022-08-05T08:20:54;18.60;;;6.32;;
41261;SDS011;29629;52.532;13.352;2022-08-05T08:23:21;22.75;;;6.20;;
41261;SDS011;29629;52.532;13.352;2022-08-05T08:25:49;21.35;;;6.38;;
41261;SDS011;29629;52.532;13.352;2022-08-05T08:28:16;21.83;;;6.32;;
41261;SDS011;29629;52.532;13.352;2022-08-05T08:30:42;11.65;;;4.75;;
41261;SDS011;29629;52.532;13.352;2022-08-05T08:33:09;18.83;;;5.55;;
41261;SDS011;29629;52.532;13.352;2022-08-05T08:35:37;14.45;;;4.60;;
41261;SDS011;29629;52.532;13.352;2022-08-05T08:38:04;19.88;;;6.00;;
41261;SDS011;29629;52.532;13.352;2022-08-05T08:40:31;22.80;;;5.53;;
41261;SDS011;29629;52.532;13.352;2022-08-05T08:43:00;19.00;;;5.53;;
41261;SDS011;29629;52.532;13.352;2022-08-05T08:45:28;17.58;;;5.60;;
41261;SDS011;29629;52.532;13.352;2022-08-05T08:47:57;21.33;;;5.57;;
41261;SDS011;29629;52.532;13.352;2022-08-05T08:50:26;18.08;;;4.50;;
41261;SDS011;29629;52.532;13.352;2022-08-05T08:52:55;10.82;;;4.47;;
41261;SDS011;29629;52.532;13.352;2022-08-05T08:55:26;18.75;;;5.10;;
41261;SDS011;29629;52.532;13.352;2022-08-05T08:57:53;12.25;;;4.40;;
41261;SDS011;29629;52.532;13.352;2022-08-05T09:00:22;18.95;;;5.30;;
41261;SDS011;29629;52.532;13.352;2022-08-05T09:02:49;10.60;;;4.22;;
41261;SDS011;29629;52.532;13.352;2022-08-05T09:05:17;16.27;;;5.57;;
41261;SDS011;29629;52.532;13.352;2022-08-05T09:07:45;19.58;;;5.50;;
41261;SDS011;29629;52.532;13.352;2022-08-05T09:10:12;12.82;;;4.45;;
41261;SDS011;29629;52.532;13.352;2022-08-05T09:12:40;15.80;;;5.40;;
41261;SDS011;29629;52.532;13.352;2022-08-05T09:15:08;11.07;;;4.38;;
41261;SDS011;29629;52.532;13.352;2022-08-05T09:17:36;14.02;;;5.32;;
41261;SDS011;29629;52.532;13.352;2022-08-05T09:20:05;13.75;;;5.05;;
41261;SDS011;29629;52.532;13.352;2022-08-05T09:25:29;22.55;;;7.15;;
41261;SDS011;29629;52.532;13.352;2022-08-05T09:27:55;23.35;;;7.50;;
41261;SDS011;29629;52.532;13.352;2022-08-05T09:30:30;22.25;;;10.88;;
41261;SDS011;29629;52.532;13.352;2022-08-05T09:33:01;27.35;;;9.35;;
41261;SDS011;29629;52.532;13.352;2022-08-05T09:35:28;21.30;;;6.47;;
41261;SDS011;29629;52.532;13.352;2022-08-05T09:37:55;23.40;;;5.70;;
41261;SDS011;29629;52.532;13.352;2022-08-05T09:40:32;25.45;;;6.70;;
41261;SDS011;29629;52.532;13.352;2022-08-05T09:43:02;13.05;;;5.32;;
41261;SDS011;29629;52.532;13.352;2022-08-05T09:45:34;18.85;;;6.65;;
41261;SDS011;29629;52.532;13.352;2022-08-05T09:48:21;7.68;;;4.40;;
41261;SDS011;29629;52.532;13.352;2022-08-05T09:50:50;19.83;;;6.43;;
41261;SDS011;29629;52.532;13.352;2022-08-05T09:53:19;12.55;;;5.18;;
41261;SDS011;29629;52.532;13.352;2022-08-05T09:55:49;19.45;;;5.75;;
41261;SDS011;29629;52.532;13.352;2022-08-05T09:58:17;15.80;;;5.68;;
41261;SDS011;29629;52.532;13.352;2022-08-05T10:00:51;13.55;;;5.03;;
41261;SDS011;29629;52.532;13.352;2022-08-05T10:03:21;11.90;;;4.93;;
41261;SDS011;29629;52.532;13.352;2022-08-05T10:05:59;16.88;;;6.40;;
41261;SDS011;29629;52.532;13.352;2022-08-05T10:08:27;18.33;;;6.78;;
41261;SDS011;29629;52.532;13.352;2022-08-05T10:10:54;14.25;;;6.10;;
41261;SDS011;29629;52.532;13.352;2022-08-05T10:13:28;14.48;;;7.68;;
41261;SDS011;29629;52.532;13.352;2022-08-05T10:18:25;17.30;;;6.88;;
41261;SDS011;29629;52.532;13.352;2022-08-05T10:20:56;17.05;;;7.32;;
41261;SDS011;29629;52.532;13.352;2022-08-05T10:23:25;15.90;;;6.25;;
41261;SDS011;29629;52.532;13.352;2022-08-05T10:25:53;16.52;;;6.30;;
41261;SDS011;29629;52.532;13.352;2022-08-05T10:28:20;19.50;;;6.38;;
41261;SDS011;29629;52.532;13.352;2022-08-05T10:30:49;15.15;;;6.40;;
41261;SDS011;29629;52.532;13.352;2022-08-05T10:33:17;16.55;;;7.82;;
41261;SDS011;29629;52.532;13.352;2022-08-05T10:35:45;17.58;;;6.75;;
41261;SDS011;29629;52.532;13.352;2022-08-05T10:38:12;20.05;;;7.93;;
41261;SDS011;29629;52.532;13.352;2022-08-05T10:40:43;11.32;;;7.22;;
41261;SDS011;29629;52.532;13.352;2022-08-05T10:43:22;19.15;;;8.40;;
41261;SDS011;29629;52.532;13.352;2022-08-05T10:45:56;18.55;;;8.57;;
41261;SDS011;29629;52.532;13.352;2022-08-05T10:48:27;21.73;;;8.30;;
41261;SDS011;29629;52.532;13.352;2022-08-05T10:50:58;35.03;;;12.00;;
41261;SDS011;29629;52.532;13.352;2022-08-05T10:53:37;17.50;;;6.80;;
41261;SDS011;29629;52.532;13.352;2022-08-05T10:56:07;16.05;;;5.57;;
41261;SDS011;29629;52.532;13.352;2022-08-05T10:58:35;17.10;;;6.47;;
41261;SDS011;29629;52.532;13.352;2022-08-05T11:01:12;10.88;;;5.63;;
41261;SDS011;29629;52.532;13.352;2022-08-05T11:06:30;7.60;;;5.00;;
41261;SDS011;29629;52.532;13.352;2022-08-05T11:09:17;9.75;;;4.78;;
41261;SDS011;29629;52.532;13.352;2022-08-05T11:11:45;14.32;;;5.30;;
41261;SDS011;29629;52.532;13.352;2022-08-05T11:14:19;12.82;;;5.32;;
41261;SDS011;29629;52.532;13.352;2022-08-05T11:19:49;13.15;;;6.40;;
41261;SDS011;29629;52.532;13.352;2022-08-05T11:25:30;20.65;;;10.27;;
41261;SDS011;29629;52.532;13.352;2022-08-05T11:31:22;15.43;;;9.27;;
41261;SDS011;29629;52.532;13.352;2022-08-05T11:33:56;14.32;;;10.60;;
41261;SDS011;29629;52.532;13.352;2022-08-05T11:36:38;13.85;;;11.07;;
41261;SDS011;29629;52.532;13.352;2022-08-05T11:39:09;13.60;;;10.57;;
41261;SDS011;29629;52.532;13.352;2022-08-05T11:41:37;13.02;;;10.05;;
41261;SDS011;29629;52.532;13.352;2022-08-05T11:44:06;10.75;;;9.65;;
41261;SDS011;29629;52.532;13.352;2022-08-05T11:46:35;14.30;;;10.07;;
41261;SDS011;29629;52.532;13.352;2022-08-05T11:49:04;11.95;;;9.98;;
41261;SDS011;29629;52.532;13.352;2022-08-05T11:51:31;10.35;;;9.40;;
41261;SDS011;29629;52.532;13.352;2022-08-05T11:53:59;15.23;;;9.88;;
41261;SDS011;29629;52.532;13.352;2022-08-05T11:59:20;11.48;;;10.25;;
41261;SDS011;29629;52.532;13.352;2022-08-05T12:01:51;12.77;;;10.50;;
41261;SDS011;29629;52.532;13.352;2022-08-05T12:04:19;11.98;;;10.77;;
41261;SDS011;29629;52.532;13.352;2022-08-05T12:06:46;11.32;;;10.40;;
41261;SDS011;29629;52.532;13.352;2022-08-05T12:09:14;14.07;;;11.23;;
41261;SDS011;29629;52.532;13.352;2022-08-05T12:11:44;12.65;;;11.15;;
41261;SDS011;29629;52.532;13.352;2022-08-05T12:14:11;13.77;;;11.80;;
41261;SDS011;29629;52.532;13.352;2022-08-05T12:16:40;13.60;;;11.18;;
41261;SDS011;29629;52.532;13.352;2022-08-05T12:19:09;14.25;;;11.38;;
41261;SDS011;29629;52.532;13.352;2022-08-05T12:21:41;13.20;;;10.93;;
41261;SDS011;29629;52.532;13.352;2022-08-05T12:26:39;16.30;;;11.95;;
41261;SDS011;29629;52.532;13.352;2022-08-05T12:29:07;25.20;;;13.10;;
41261;SDS011;29629;52.532;13.352;2022-08-05T12:31:36;14.40;;;11.75;;
41261;SDS011;29629;52.532;13.352;2022-08-05T12:34:05;14.23;;;11.55;;
41261;SDS011;29629;52.532;13.352;2022-08-05T12:36:34;14.30;;;11.80;;
41261;SDS011;29629;52.532;13.352;2022-08-05T12:39:02;16.50;;;12.57;;
41261;SDS011;29629;52.532;13.352;2022-08-05T12:41:29;14.23;;;11.50;;
41261;SDS011;29629;52.532;13.352;2022-08-05T12:43:58;14.77;;;12.43;;
41261;SDS011;29629;52.532;13.352;2022-08-05T12:46:27;19.65;;;12.45;;
41261;SDS011;29629;52.532;13.352;2022-08-05T12:48:59;12.27;;;11.23;;
41261;SDS011;29629;52.532;13.352;2022-08-05T12:51:28;16.58;;;12.45;;
41261;SDS011;29629;52.532;13.352;2022-08-05T12:53:57;14.32;;;11.27;;
41261;SDS011;29629;52.532;13.352;2022-08-05T12:56:26;17.70;;;11.75;;
41261;SDS011;29629;52.532;13.352;2022-08-05T12:59:09;15.20;;;10.30;;
41261;SDS011;29629;52.532;13.352;2022-08-05T13:01:40;10.98;;;8.32;;
41261;SDS011;29629;52.532;13.352;2022-08-05T13:04:07;13.45;;;7.30;;
41261;SDS011;29629;52.532;13.352;2022-08-05T13:06:40;13.70;;;7.78;;
41261;SDS011;29629;52.532;13.352;2022-08-05T13:09:09;11.00;;;7.20;;
41261;SDS011;29629;52.532;13.352;2022-08-05T13:11:37;16.67;;;8.18;;
41261;SDS011;29629;52.532;13.352;2022-08-05T13:14:16;14.80;;;7.75;;
41261;SDS011;29629;52.532;13.352;2022-08-05T13:16:47;20.33;;;8.27;;
41261;SDS011;29629;52.532;13.352;2022-08-05T13:19:15;16.63;;;7.88;;
41261;SDS011;29629;52.532;13.352;2022-08-05T13:21:45;14.68;;;7.78;;
41261;SDS011;29629;52.532;13.352;2022-08-05T13:24:12;14.15;;;6.80;;
41261;SDS011;29629;52.532;13.352;2022-08-05T13:26:40;20.92;;;7.75;;
41261;SDS011;29629;52.532;13.352;2022-08-05T13:29:08;20.20;;;7.45;;
41261;SDS011;29629;52.532;13.352;2022-08-05T13:31:35;16.98;;;6.70;;
41261;SDS011;29629;52.532;13.352;2022-08-05T13:34:01;14.20;;;6.82;;
41261;SDS011;29629;52.532;13.352;2022-08-05T13:36:28;17.10;;;6.60;;
41261;SDS011;29629;52.532;13.352;2022-08-05T13:38:56;14.98;;;5.95;;
41261;SDS011;29629;52.532;13.352;2022-08-05T13:41:23;18.35;;;6.68;;
41261;SDS011;29629;52.532;13.352;2022-08-05T13:43:50;13.27;;;5.97;;
41261;SDS011;29629;52.532;13.352;2022-08-05T13:46:17;24.25;;;8.00;;
41261;SDS011;29629;52.532;13.352;2022-08-05T13:48:44;22.52;;;7.65;;
41261;SDS011;29629;52.532;13.352;2022-08-05T13:51:12;11.88;;;6.82;;
41261;SDS011;29629;52.532;13.352;2022-08-05T13:53:39;16.40;;;7.43;;
41261;SDS011;29629;52.532;13.352;2022-08-05T13:56:07;15.52;;;7.60;;
41261;SDS011;29629;52.532;13.352;2022-08-05T13:58:34;9.32;;;5.25;;
41261;SDS011;29629;52.532;13.352;2022-08-05T14:01:02;14.65;;;5.45;;
41261;SDS011;29629;52.532;13.352;2022-08-05T14:03:29;23.92;;;6.85;;
41261;SDS011;29629;52.532;13.352;2022-08-05T14:05:56;21.13;;;6.80;;
41261;SDS011;29629;52.532;13.352;2022-08-05T14:08:21;16.35;;;6.32;;
41261;SDS011;29629;52.532;13.352;2022-08-05T14:10:48;10.68;;;5.00;;
41261;SDS011;29629;52.532;13.352;2022-08-05T14:13:16;17.98;;;5.85;;
41261;SDS011;29629;52.532;13.352;2022-08-05T14:15:43;14.10;;;5.72;;
41261;SDS011;29629;52.532;13.352;2022-08-05T14:18:10;14.98;;;5.75;;
41261;SDS011;29629;52.532;13.352;2022-08-05T14:20:37;11.82;;;5.32;;
41261;SDS011;29629;52.532;13.352;2022-08-05T14:23:04;13.63;;;5.70;;
41261;SDS011;29629;52.532;13.352;2022-08-05T14:25:31;16.48;;;5.80;;
41261;SDS011;29629;52.532;13.352;2022-08-05T14:27:57;10.48;;;5.25;;
41261;SDS011;29629;52.532;13.352;2022-08-05T14:30:26;19.80;;;6.35;;
41261;SDS011;29629;52.532;13.352;2022-08-05T14:32:52;23.38;;;6.72;;
41261;SDS011;29629;52.532;13.352;2022-08-05T14:35:19;21.95;;;6.72;;
41261;SDS011;29629;52.532;13.352;2022-08-05T14:37:46;6.85;;;4.05;;
41261;SDS011;29629;52.532;13.352;2022-08-05T14:40:13;13.75;;;5.05;;
41261;SDS011;29629;52.532;13.352;2022-08-05T14:42:40;18.52;;;5.65;;
41261;SDS011;29629;52.532;13.352;2022-08-05T14:45:07;13.82;;;5.53;;
41261;SDS011;29629;52.532;13.352;2022-08-05T14:47:36;17.15;;;6.30;;